Time;durP1;ratioP1;P1;durP2;ratioP2;P2;SDS_P1;SDS_P2;PMS_P1;PMS_P2;Temp;Humidity;BMP_temperature;BMP_pressure;BME280_temperature;BME280_humidity;BME280_pressure;Samples;Min_cycle;Max_cycle;Signal;HPM_P1;HPM_P2
2022/04/07 00:01:46;;;;;;;14.45;3.25;;;;;;;;;;5054247;22;20155;-69
2022/04/07 00:04:12;;;;;;;17.95;3.08;;;;;;;;;;5081226;28;20052;-70
2022/04/07 00:06:38;;;;;;;19.98;3.08;;;;;;;;;;5077693;28;20595;-69
2022/04/07 00:09:04;;;;;;;7.07;2.38;;;;;;;;;;5082586;28;20036;-70
2022/04/07 00:11:30;;;;;;;11.82;2.60;;;;;;;;;;5093848;28;20075;-70
2022/04/07 00:13:56;;;;;;;17.48;3.28;;;;;;;;;;5095294;28;20044;-70
2022/04/07 00:16:22;;;;;;;10.88;2.25;;;;;;;;;;5092174;28;20054;-70
2022/04/07 00:18:48;;;;;;;12.32;2.55;;;;;;;;;;5065724;28;20044;-70
2022/04/07 00:21:24;;;;;;;15.18;3.97;;;;;;;;;;5056504;28;20439;-70
2022/04/07 00:23:50;;;;;;;9.45;2.88;;;;;;;;;;5041763;28;20132;-71
2022/04/07 00:26:16;;;;;;;5.70;1.85;;;;;;;;;;5090053;28;20091;-71
2022/04/07 00:28:42;;;;;;;10.43;2.08;;;;;;;;;;5059332;28;21300;-70
2022/04/07 00:31:11;;;;;;;11.13;2.45;;;;;;;;;;5126356;27;20067;-70
2022/04/07 00:33:37;;;;;;;11.63;2.50;;;;;;;;;;5076767;28;20059;-71
2022/04/07 00:36:04;;;;;;;15.18;2.72;;;;;;;;;;5081038;28;20048;-71
2022/04/07 00:38:30;;;;;;;11.18;3.42;;;;;;;;;;5055599;28;20044;-71
2022/04/07 00:40:56;;;;;;;11.95;2.65;;;;;;;;;;5071626;28;20059;-70
2022/04/07 00:43:29;;;;;;;16.92;2.50;;;;;;;;;;5084359;28;20048;-71
2022/04/07 00:45:55;;;;;;;17.52;3.10;;;;;;;;;;5075118;28;20097;-70
2022/04/07 00:48:21;;;;;;;10.60;2.40;;;;;;;;;;5078545;28;20041;-70
2022/04/07 00:50:47;;;;;;;16.42;3.15;;;;;;;;;;5056710;28;20135;-70
2022/04/07 00:53:13;;;;;;;9.57;2.55;;;;;;;;;;5080119;28;20049;-70
2022/04/07 00:55:41;;;;;;;12.20;2.85;;;;;;;;;;5083673;28;20055;-70
2022/04/07 00:58:07;;;;;;;6.68;1.92;;;;;;;;;;5060240;28;20056;-71
2022/04/07 01:00:34;;;;;;;12.63;2.70;;;;;;;;;;5091097;28;20036;-70
2022/04/07 01:03:00;;;;;;;14.65;3.00;;;;;;;;;;5072284;28;20051;-70
2022/04/07 01:05:26;;;;;;;12.40;3.15;;;;;;;;;;5062783;28;20043;-70
2022/04/07 01:07:52;;;;;;;18.35;3.35;;;;;;;;;;5091484;28;20048;-71
2022/04/07 01:10:19;;;;;;;20.85;4.57;;;;;;;;;;5076748;28;20079;-71
2022/04/07 01:12:45;;;;;;;11.93;3.63;;;;;;;;;;5076222;28;20036;-71
2022/04/07 01:15:11;;;;;;;14.57;3.20;;;;;;;;;;5078249;28;20039;-70
2022/04/07 01:17:38;;;;;;;9.55;3.17;;;;;;;;;;5058896;28;20076;-71
2022/04/07 01:20:05;;;;;;;19.27;3.97;;;;;;;;;;5063380;28;20051;-71
2022/04/07 01:22:31;;;;;;;18.45;4.60;;;;;;;;;;5068490;28;20159;-70
2022/04/07 01:24:57;;;;;;;23.52;5.28;;;;;;;;;;5058935;28;20048;-70
2022/04/07 01:27:24;;;;;;;13.35;4.07;;;;;;;;;;5091540;28;20044;-71
2022/04/07 01:29:52;;;;;;;16.65;3.40;;;;;;;;;;5044873;28;20040;-69
2022/04/07 01:32:20;;;;;;;15.63;4.55;;;;;;;;;;5092756;28;20051;-71
2022/04/07 01:34:46;;;;;;;17.50;2.97;;;;;;;;;;5093424;28;20492;-71
2022/04/07 01:37:12;;;;;;;22.08;3.65;;;;;;;;;;5087011;28;20062;-70
2022/04/07 01:39:40;;;;;;;11.65;3.95;;;;;;;;;;5076679;28;20480;-70
2022/04/07 01:42:07;;;;;;;15.30;2.90;;;;;;;;;;5087826;28;20089;-70
2022/04/07 01:44:34;;;;;;;22.33;3.80;;;;;;;;;;5073702;28;20159;-71
2022/04/07 01:47:00;;;;;;;15.00;4.15;;;;;;;;;;5088773;28;20036;-71
2022/04/07 01:49:26;;;;;;;12.23;2.58;;;;;;;;;;5092192;28;20126;-71
2022/04/07 01:51:52;;;;;;;18.48;2.72;;;;;;;;;;5091077;28;20047;-70
2022/04/07 01:54:19;;;;;;;21.00;4.00;;;;;;;;;;5106310;28;20044;-70
2022/04/07 01:56:45;;;;;;;19.35;3.92;;;;;;;;;;5078363;28;20052;-71
2022/04/07 01:59:13;;;;;;;17.30;2.97;;;;;;;;;;5055425;28;20040;-71
2022/04/07 02:01:39;;;;;;;17.48;4.35;;;;;;;;;;5072516;28;20040;-70
2022/04/07 02:04:05;;;;;;;14.82;3.60;;;;;;;;;;5061309;28;20056;-70
2022/04/07 02:06:31;;;;;;;20.10;3.33;;;;;;;;;;5077552;28;20112;-71
2022/04/07 02:08:57;;;;;;;22.33;3.53;;;;;;;;;;5093148;28;20051;-70
2022/04/07 02:11:23;;;;;;;19.25;3.28;;;;;;;;;;5093163;28;20054;-71
2022/04/07 02:13:50;;;;;;;18.23;3.30;;;;;;;;;;5054910;28;20124;-70
2022/04/07 02:16:16;;;;;;;16.25;3.10;;;;;;;;;;5079613;28;20115;-71
2022/04/07 02:18:43;;;;;;;18.50;3.45;;;;;;;;;;5055181;28;20055;-71
2022/04/07 02:21:09;;;;;;;16.38;3.40;;;;;;;;;;5079278;28;20115;-70
2022/04/07 02:23:42;;;;;;;19.90;3.85;;;;;;;;;;5092611;28;20087;-70
2022/04/07 02:26:15;;;;;;;14.55;3.40;;;;;;;;;;5073106;28;20495;-70
2022/04/07 02:28:41;;;;;;;18.98;4.07;;;;;;;;;;5105106;28;20063;-71
2022/04/07 02:31:08;;;;;;;22.33;4.32;;;;;;;;;;5054365;28;20044;-70
2022/04/07 02:33:36;;;;;;;16.27;4.50;;;;;;;;;;5057113;28;20032;-70
2022/04/07 02:36:03;;;;;;;16.15;4.25;;;;;;;;;;5078398;28;20047;-69
2022/04/07 02:38:29;;;;;;;16.65;4.18;;;;;;;;;;5054743;28;20044;-70
2022/04/07 02:40:55;;;;;;;17.83;4.75;;;;;;;;;;5054795;28;20052;-70
2022/04/07 02:43:21;;;;;;;20.90;3.60;;;;;;;;;;5072654;28;20053;-70
2022/04/07 02:45:47;;;;;;;15.52;4.20;;;;;;;;;;5054291;28;20143;-70
2022/04/07 02:48:13;;;;;;;8.93;4.38;;;;;;;;;;5088647;28;20407;-70
2022/04/07 02:50:39;;;;;;;22.75;5.38;;;;;;;;;;5103657;28;20040;-70
2022/04/07 02:53:06;;;;;;;20.10;6.20;;;;;;;;;;5071103;28;20052;-70
2022/04/07 02:55:32;;;;;;;18.50;4.70;;;;;;;;;;5039783;28;20131;-70
2022/04/07 02:57:58;;;;;;;13.55;4.13;;;;;;;;;;5068997;28;20123;-70
2022/04/07 03:00:24;;;;;;;22.90;5.57;;;;;;;;;;5076228;28;20120;-70
2022/04/07 03:02:50;;;;;;;13.75;4.25;;;;;;;;;;5060390;28;20469;-71
2022/04/07 03:05:17;;;;;;;17.75;3.83;;;;;;;;;;5078035;28;20040;-70
2022/04/07 03:07:43;;;;;;;21.90;4.32;;;;;;;;;;5058501;28;20498;-71
2022/04/07 03:10:09;;;;;;;14.75;3.40;;;;;;;;;;5074564;28;20134;-70
2022/04/07 03:12:35;;;;;;;16.08;4.43;;;;;;;;;;5073691;28;20128;-71
2022/04/07 03:15:01;;;;;;;17.88;4.93;;;;;;;;;;5091860;28;20044;-71
2022/04/07 03:17:27;;;;;;;18.00;4.00;;;;;;;;;;5072916;28;20048;-71
2022/04/07 03:19:53;;;;;;;12.95;3.25;;;;;;;;;;5074636;28;20139;-70
2022/04/07 03:22:32;;;;;;;12.48;2.72;;;;;;;;;;5081153;22;20044;-69
2022/04/07 03:25:17;;;;;;;14.85;4.00;;;;;;;;;;5124616;22;20055;-70
2022/04/07 03:27:43;;;;;;;13.65;3.85;;;;;;;;;;5090021;22;20052;-71
2022/04/07 03:30:10;;;;;;;13.20;3.08;;;;;;;;;;5072401;28;20127;-70
2022/04/07 03:32:36;;;;;;;15.63;3.53;;;;;;;;;;5072111;28;20051;-71
2022/04/07 03:35:02;;;;;;;18.88;3.40;;;;;;;;;;5072172;28;20493;-70
2022/04/07 03:37:28;;;;;;;18.75;3.17;;;;;;;;;;5064582;28;20083;-71
2022/04/07 03:39:54;;;;;;;15.15;3.03;;;;;;;;;;5121264;22;20073;-71
2022/04/07 03:42:27;;;;;;;17.27;3.35;;;9.50;99.90;;;;;;5066094;22;20064;-70
2022/04/07 03:44:53;;;;;;;20.33;3.85;;;;;;;;;;5095670;22;20457;-70
2022/04/07 03:47:19;;;;;;;17.90;3.70;;;;;;;;;;5051368;28;20076;-70
2022/04/07 03:49:45;;;;;;;20.13;4.22;;;;;;;;;;5051062;28;20044;-70
2022/04/07 03:52:11;;;;;;;16.77;2.75;;;;;;;;;;5051220;28;20049;-70
2022/04/07 03:54:37;;;;;;;25.58;4.47;;;;;;;;;;5049560;28;20053;-70
2022/04/07 03:57:03;;;;;;;35.45;6.43;;;;;;;;;;5049565;28;20080;-70
2022/04/07 03:59:33;;;;;;;33.10;8.00;;;;;;;;;;5040821;28;20501;-70
2022/04/07 04:01:59;;;;;;;11.57;2.70;;;;;;;;;;5048239;28;20090;-70
2022/04/07 04:04:25;;;;;;;15.18;3.47;;;;;;;;;;5054696;28;20124;-71
2022/04/07 04:06:51;;;;;;;30.45;5.90;;;;;;;;;;5052791;28;20037;-70
2022/04/07 04:09:17;;;;;;;21.38;4.28;;;;;;;;;;5041260;28;20164;-71
2022/04/07 04:11:43;;;;;;;27.88;5.18;;;;;;;;;;5054870;28;20128;-69
2022/04/07 04:14:09;;;;;;;30.30;4.28;;;;;;;;;;5055136;28;20049;-69
2022/04/07 04:16:35;;;;;;;31.42;5.57;;;;;;;;;;5050666;28;20570;-69
2022/04/07 04:19:01;;;;;;;33.80;6.45;;;;;;;;;;5053180;28;20508;-69
2022/04/07 04:21:27;;;;;;;28.90;4.97;;;;;;;;;;5053320;28;20045;-71
2022/04/07 04:23:53;;;;;;;24.15;4.90;;;;;;;;;;5055145;28;20459;-70
2022/04/07 04:26:19;;;;;;;21.75;3.47;;;;;;;;;;5051665;28;20056;-71
2022/04/07 04:28:45;;;;;;;31.67;5.43;;;;;;;;;;5051269;28;20419;-71
2022/04/07 04:31:11;;;;;;;26.30;4.68;;;;;;;;;;5034858;28;20045;-72
2022/04/07 04:33:37;;;;;;;24.42;4.07;;;;;;;;;;5050874;28;20410;-71
2022/04/07 04:36:03;;;;;;;35.85;4.68;;;;;;;;;;5051664;28;20401;-71
2022/04/07 04:38:29;;;;;;;32.15;4.88;;;;;;;;;;5040626;28;20505;-71
2022/04/07 04:40:55;;;;;;;28.02;4.78;;;;;;;;;;5041735;28;20075;-71
2022/04/07 04:43:21;;;;;;;27.98;4.18;;;;;;;;;;5045392;28;20092;-71
2022/04/07 04:45:47;;;;;;;26.85;5.07;;;;;;;;;;5047203;28;20060;-71
2022/04/07 04:48:13;;;;;;;18.98;4.25;;;;;;;;;;5050911;28;20051;-69
2022/04/07 04:50:39;;;;;;;9.13;3.67;;;;;;;;;;5054108;28;20120;-69
2022/04/07 04:53:05;;;;;;;8.40;1.50;;;;;;;;;;5053396;28;20116;-69
2022/04/07 04:55:31;;;;;;;11.60;2.70;;;;;;;;;;5036382;28;20049;-69
2022/04/07 04:57:57;;;;;;;7.47;2.72;;;;;;;;;;5053998;28;20483;-68
2022/04/07 05:00:23;;;;;;;9.95;2.08;;;;;;;;;;5046121;28;20045;-68
2022/04/07 05:02:49;;;;;;;19.17;4.65;;;;;;;;;;5052881;28;20037;-69
2022/04/07 05:05:15;;;;;;;21.70;4.32;;;;;;;;;;5052483;28;20068;-68
2022/04/07 05:07:41;;;;;;;27.50;5.00;;;;;;;;;;5052013;28;20045;-69
2022/04/07 05:10:07;;;;;;;29.95;5.93;;;;;;;;;;5020153;28;20460;-68
2022/04/07 05:12:34;;;;;;;23.05;5.55;;;;;;;;;;5018369;28;20045;-69
2022/04/07 05:15:00;;;;;;;23.23;4.85;;;;;;;;;;5018283;28;20037;-69
2022/04/07 05:17:26;;;;;;;3.53;0.82;;;;;;;;;;5045255;28;20060;-68
2022/04/07 05:19:52;;;;;;;9.40;1.10;;;;;;;;;;5020998;28;20489;-64
2022/04/07 05:22:18;;;;;;;4.18;1.02;;;;;;;;;;5052449;28;20087;-67
2022/04/07 05:24:44;;;;;;;5.90;0.93;;;;;;;;;;5041710;28;20414;-67
2022/04/07 05:27:10;;;;;;;6.30;1.02;;;;;;;;;;5021749;28;20037;-67
2022/04/07 05:29:36;;;;;;;11.10;1.77;;;;;;;;;;5032579;28;20056;-68
2022/04/07 05:32:02;;;;;;;8.68;1.40;;;;;;;;;;5030083;28;20052;-67
2022/04/07 05:34:28;;;;;;;12.75;2.58;;;;;;;;;;5019395;28;20044;-67
2022/04/07 05:36:54;;;;;;;5.65;1.40;;;;;;;;;;5035454;28;20044;-68
2022/04/07 05:39:20;;;;;;;6.85;1.95;;;;;;;;;;5039956;28;20053;-68
2022/04/07 05:41:46;;;;;;;10.35;2.33;;;;;;;;;;5034654;28;20048;-67
2022/04/07 05:44:12;;;;;;;16.30;4.22;;;;;;;;;;5034977;28;20041;-68
2022/04/07 05:46:38;;;;;;;19.27;4.63;;;;;;;;;;5014872;28;20053;-68
2022/04/07 05:49:04;;;;;;;11.93;2.55;;;;;;;;;;5015276;28;20402;-68
2022/04/07 05:51:30;;;;;;;8.77;1.45;;;;;;;;;;4995971;28;20042;-66
2022/04/07 05:53:56;;;;;;;4.95;0.98;;;;;;;;;;5033202;28;20080;-67
2022/04/07 05:56:22;;;;;;;7.22;1.67;;;;;;;;;;5008869;28;20037;-67
2022/04/07 05:58:48;;;;;;;9.20;2.80;;;;;;;;;;4980013;28;20045;-68
2022/04/07 06:01:14;;;;;;;10.32;1.33;;;;;;;;;;5014229;28;20053;-67
2022/04/07 06:03:40;;;;;;;8.95;2.03;;;;;;;;;;5021991;28;20049;-68
2022/04/07 06:06:07;;;;;;;11.07;1.27;;;;;;;;;;5014936;28;20140;-68
2022/04/07 06:08:33;;;;;;;9.50;1.40;;;;;;;;;;5006495;28;20045;-68
2022/04/07 06:10:59;;;;;;;10.93;1.15;;;;;;;;;;5011612;28;20052;-67
2022/04/07 06:13:25;;;;;;;9.35;1.27;;;;;;;;;;4992913;28;20047;-68
2022/04/07 06:15:51;;;;;;;7.55;1.15;;;;;;;;;;5028530;28;20049;-67
2022/04/07 06:18:18;;;;;;;3.42;0.60;;;;;;;;;;5017082;28;20049;-69
2022/04/07 06:20:46;;;;;;;3.22;0.68;;;;;;;;;;4997671;28;20041;-68
2022/04/07 06:23:12;;;;;;;7.07;1.27;;;;;;;;;;5012316;28;20050;-67
2022/04/07 06:25:38;;;;;;;4.05;0.80;;;;;;;;;;5014706;28;20053;-67
2022/04/07 06:28:04;;;;;;;1.90;0.65;;;;;;;;;;5014725;28;20120;-67
2022/04/07 06:30:30;;;;;;;4.60;0.60;;;;;;;;;;5013852;28;20103;-68
2022/04/07 06:32:57;;;;;;;2.08;0.73;;;;;;;;;;5030519;28;20045;-68
2022/04/07 06:35:23;;;;;;;3.53;0.85;;;;;;;;;;5030832;28;20052;-68
2022/04/07 06:37:56;;;;;;;2.38;0.60;;;;;;;;;;5007824;28;20100;-70
2022/04/07 06:40:25;;;;;;;6.68;2.45;;;;;;;;;;5007787;28;20049;-74
2022/04/07 06:42:52;;;;;;;7.97;1.10;;;;;;;;;;5013823;28;20080;-74
2022/04/07 06:45:18;;;;;;;6.85;1.08;;;;;;;;;;5028899;28;20084;-74
2022/04/07 06:47:44;;;;;;;8.25;0.82;;;;;;;;;;5031618;28;20152;-72
2022/04/07 06:50:12;;;;;;;4.13;0.98;;;;;;;;;;5021074;28;20041;-72
2022/04/07 06:52:38;;;;;;;7.82;1.20;;;;;;;;;;5050293;28;20374;-72
2022/04/07 06:58:10;;;;;;;7.13;1.05;;;;;;;;;;5117028;22;20060;31
2022/04/07 07:00:41;;;;;;;3.15;1.10;;;;;;;;;;5053777;28;20444;-72
2022/04/07 07:03:07;;;;;;;5.60;0.70;;;;;;;;;;5047718;28;20033;-72
2022/04/07 07:05:35;;;;;;;9.02;2.13;;;;;;;;;;5052371;28;20045;-72
2022/04/07 07:08:18;;;;;;;4.20;0.82;;;;;;;;;;5037599;28;20068;-72
2022/04/07 07:10:45;;;;;;;5.30;1.80;;;;;;;;;;5051091;28;20477;-73
2022/04/07 07:13:12;;;;;;;10.10;1.50;;;;;;;;;;5052796;22;20052;-72
2022/04/07 07:15:41;;;;;;;8.50;1.15;;;;;;;;;;5079360;22;20055;-72
2022/04/07 07:18:07;;;;;;;6.35;0.68;;;;;;;;;;5079606;22;21030;-73
2022/04/07 07:20:33;;;;;;;9.13;2.17;;;;;;;;;;5090145;28;20052;-72
2022/04/07 07:22:59;;;;;;;7.03;1.00;;;;;;;;;;5073963;28;20044;-72
2022/04/07 07:25:25;;;;;;;3.63;0.82;;;;;;;;;;5074343;28;20120;-72
2022/04/07 07:27:51;;;;;;;4.95;0.75;;;;;;;;;;5071354;28;20092;-73
2022/04/07 07:30:18;;;;;;;4.50;1.00;;;;;;;;;;5058323;28;20056;-72
2022/04/07 07:32:45;;;;;;;5.85;1.33;;;;;;;;;;5078140;28;20052;-71
2022/04/07 07:35:11;;;;;;;7.00;0.70;;;;;;;;;;5079987;28;20040;-72
2022/04/07 07:37:38;;;;;;;3.83;1.08;;;;;;;;;;5095453;28;20071;-71
2022/04/07 07:40:08;;;;;;;7.30;1.10;;;;;;;;;;5100833;28;20090;-71
2022/04/07 07:42:36;;;;;;;2.47;0.70;;;;;;;;;;5064503;28;20040;-71
2022/04/07 07:45:02;;;;;;;1.70;0.70;;;;;;;;;;5083156;28;20047;-72
2022/04/07 07:47:28;;;;;;;5.85;0.80;;;;;;;;;;5077683;28;20056;-71
2022/04/07 07:49:54;;;;;;;2.50;0.75;;;;;;;;;;5094800;28;20047;-72
2022/04/07 07:52:20;;;;;;;6.47;1.05;;;;;;;;;;5089250;28;20044;-73
2022/04/07 07:54:46;;;;;;;3.03;0.60;;;;;;;;;;5098222;28;20040;-71
2022/04/07 07:57:12;;;;;;;7.68;0.90;;;;;;;;;;5076443;28;20110;-71
2022/04/07 07:59:39;;;;;;;2.65;0.55;;;;;;;;;;5089999;28;20381;-72
2022/04/07 08:02:05;;;;;;;5.47;0.75;;;;;;;;;;5076184;28;20093;-72
2022/04/07 08:04:31;;;;;;;4.15;1.05;;;;;;;;;;5090353;28;20094;-72
2022/04/07 08:06:58;;;;;;;2.20;0.60;;;;;;;;;;5073895;28;20052;-72
2022/04/07 08:09:24;;;;;;;3.00;0.75;;;;;;;;;;5071246;28;20122;-72
2022/04/07 08:11:50;;;;;;;2.70;0.68;;;;;;;;;;5099101;28;20568;-72
2022/04/07 08:14:16;;;;;;;1.42;0.52;;;;;;;;;;5094103;28;20047;-71
2022/04/07 08:16:42;;;;;;;1.92;0.68;;;;;;;;;;5081463;28;20047;-71
2022/04/07 08:19:09;;;;;;;7.35;0.93;;;;;;;;;;5096825;28;20399;-70
2022/04/07 08:21:35;;;;;;;3.13;0.50;;;;;;;;;;5094082;28;20088;-70
2022/04/07 08:24:01;;;;;;;5.85;0.57;;;;;;;;;;5097365;28;20051;-70
2022/04/07 08:26:27;;;;;;;3.22;0.70;;;;;;;;;;5094417;28;20044;-70
2022/04/07 08:28:53;;;;;;;5.80;1.33;;;;;;;;;;5098407;28;20464;-67
2022/04/07 08:31:19;;;;;;;3.50;0.95;;;;;;;;;;5093024;28;20130;-68
2022/04/07 08:33:45;;;;;;;5.13;1.48;;;;;;;;;;5060202;28;20050;-68
2022/04/07 08:36:11;;;;;;;3.30;0.70;;;;;;;;;;5091021;28;20044;-69
2022/04/07 08:38:37;;;;;;;2.40;0.63;;;;;;;;;;5055213;28;20039;-69
2022/04/07 08:41:07;;;;;;;4.10;0.80;;;;;;;;;;5097575;28;20105;-69
2022/04/07 08:43:37;;;;;;;4.55;1.30;;;;;;;;;;5076070;28;20481;-69
2022/04/07 08:46:06;;;;;;;5.22;1.00;;;;;;;;;;5094210;28;20534;-69
2022/04/07 08:48:32;;;;;;;8.23;0.93;;;;;;;;;;5096942;28;20054;-69
2022/04/07 08:50:59;;;;;;;4.97;1.10;;;;;;;;;;5080140;28;20418;-69
2022/04/07 08:53:25;;;;;;;3.50;1.08;;;;;;;;;;5115099;28;20051;-69
2022/04/07 08:55:51;;;;;;;7.78;0.70;;;;;;;;;;5110663;28;20092;-69
2022/04/07 08:58:17;;;;;;;5.88;1.58;;;;;;;;;;5089876;28;20531;-69
2022/04/07 09:00:44;;;;;;;8.80;2.13;;;;;;;;;;5056492;28;20041;-68
2022/04/07 09:03:11;;;;;;;8.75;2.05;;;;;;;;;;5072366;28;20048;-68
2022/04/07 09:05:51;;;;;;;7.05;0.90;;;;;;;;;;5113984;28;20046;-68
2022/04/07 09:08:18;;;;;;;6.95;1.33;;;;;;;;;;5056440;28;20052;-68
2022/04/07 09:10:52;;;;;;;5.55;1.20;;;;;;;;;;5089701;28;20048;-68
2022/04/07 09:13:18;;;;;;;7.28;1.30;;;;;;;;;;5103975;28;20545;-69
2022/04/07 09:15:46;;;;;;;8.10;1.10;;;;;;;;;;5094211;28;20039;-69
2022/04/07 09:18:12;;;;;;;10.65;1.50;;;;;;;;;;5093339;28;20052;-68
2022/04/07 09:20:44;;;;;;;6.65;1.35;;;;;;;;;;5093141;28;20059;-69
2022/04/07 09:23:12;;;;;;;6.88;1.80;;;;;;;;;;5092768;28;20059;-69
2022/04/07 09:25:44;;;;;;;9.65;1.40;;;;;;;;;;5083606;28;20168;-69
2022/04/07 09:28:11;;;;;;;5.82;1.27;;;;;;;;;;5089740;28;20546;-69
2022/04/07 09:30:41;;;;;;;10.80;1.25;;;;;;;;;;5089443;28;20048;-68
2022/04/07 09:33:19;;;;;;;10.45;1.50;;;;;;;;;;5072683;28;20090;-69
2022/04/07 09:36:21;;;;;;;11.43;1.70;;;;;;;;;;5055941;28;20056;-69
2022/04/07 09:38:53;;;;;;;12.75;1.73;;;;;;;;;;5032964;28;20056;-69
2022/04/07 09:41:21;;;;;;;13.32;1.65;;;;;;;;;;5075794;28;20093;-69
2022/04/07 09:43:51;;;;;;;12.30;2.30;;;;;;;;;;5075678;28;20044;-68
2022/04/07 09:46:17;;;;;;;12.10;2.00;;;;;;;;;;5075419;28;20609;-69
2022/04/07 09:49:05;;;;;;;11.73;1.52;;;10.30;99.90;;;;;;5074818;28;20427;-69
2022/04/07 09:51:48;;;;;;;11.23;2.20;;;;;;;;;;5073523;28;20396;-70
2022/04/07 09:54:16;;;;;;;13.35;2.03;;;;;;;;;;5100276;28;20050;-69
2022/04/07 09:56:43;;;;;;;12.25;1.63;;;;;;;;;;5095800;28;20073;-70
2022/04/07 09:59:09;;;;;;;7.70;1.98;;;;;;;;;;5090304;28;20040;-69
2022/04/07 10:01:38;;;;;;;14.00;2.35;;;;;;;;;;5109343;28;20079;-70
2022/04/07 10:04:08;;;;;;;10.68;2.25;;;;;;;;;;5075521;28;20515;-69
2022/04/07 10:06:35;;;;;;;7.15;1.52;;;;;;;;;;5075254;28;20127;-69
2022/04/07 10:09:02;;;;;;;12.73;1.90;;;;;;;;;;5101782;28;20036;-69
2022/04/07 10:11:31;;;;;;;9.30;1.63;;;;;;;;;;5091857;28;20127;-70
2022/04/07 10:13:58;;;;;;;2.78;1.13;;;;;;;;;;5093263;28;20500;-70
2022/04/07 10:16:25;;;;;;;6.13;1.27;;;;;;;;;;5083560;28;20047;-69
2022/04/07 10:19:00;;;;;;;10.65;1.70;;;;;;;;;;5057450;28;20125;-69
2022/04/07 10:21:33;;;;;;;8.85;2.47;;;;;;;;;;5097803;28;20511;-69
2022/04/07 10:24:11;;;;;;;12.15;2.05;;;;;;;;;;5076728;28;20048;-69
2022/04/07 10:26:40;;;;;;;11.10;1.98;;;;;;;;;;5093486;28;20507;-70
2022/04/07 10:29:06;;;;;;;9.85;1.73;;;;;;;;;;5080337;28;20126;-70
2022/04/07 10:31:32;;;;;;;8.25;1.92;;;;;;;;;;5111683;28;20043;-69
2022/04/07 10:34:05;;;;;;;6.90;1.48;;;;;;;;;;5092881;28;20040;-69
2022/04/07 10:36:36;;;;;;;13.65;1.75;;;;;;;;;;5073508;28;20055;-68
2022/04/07 10:39:11;;;;;;;9.52;1.48;;;;;;;;;;5080719;28;20051;-69
2022/04/07 10:41:40;;;;;;;19.80;4.18;;;;;;;;;;5065527;28;20048;-70
2022/04/07 10:44:08;;;;;;;13.60;1.90;;;;;;;;;;5092958;28;20047;-69
2022/04/07 10:46:34;;;;;;;10.35;2.05;;;;;;;;;;5091339;28;20060;-69
2022/04/07 10:49:05;;;;;;;10.10;1.85;;;;;;;;;;5085450;28;20040;-68
2022/04/07 10:51:42;;;;;;;10.43;2.45;;;;;;;;;;5094060;28;20097;-69
2022/04/07 10:54:08;;;;;;;9.13;1.90;;;;;;;;;;5072261;28;20512;-68
2022/04/07 10:56:34;;;;;;;10.60;1.70;;;;;;;;;;5056743;28;20467;-69
2022/04/07 10:59:14;;;;;;;9.13;2.03;;;;;;;;;;5077040;28;20130;-68
2022/04/07 11:01:40;;;;;;;11.95;1.45;;;;;;;;;;5062612;28;20087;-68
2022/04/07 11:04:21;;;;;;;16.13;2.38;;;;;;;;;;5075018;28;20036;-68
2022/04/07 11:07:08;;;;;;;14.32;2.83;;;;;;;;;;5081335;28;20044;-67
2022/04/07 11:09:43;;;;;;;13.88;2.63;;;;;;;;;;5096604;28;20063;-67
2022/04/07 11:12:09;;;;;;;10.10;2.45;;;;;;;;;;5095698;28;20044;-67
2022/04/07 11:14:35;;;;;;;12.80;2.97;;;;;;;;;;5112084;28;20054;-67
2022/04/07 11:17:02;;;;;;;11.55;3.20;;;;;;;;;;5109983;28;20036;-69
2022/04/07 11:19:44;;;;;;;15.77;2.65;;;;;;;;;;5078361;28;20595;-68
2022/04/07 11:22:12;;;;;;;17.83;2.42;;;;;;;;;;5045083;28;20055;-68
2022/04/07 11:24:44;;;;;;;18.92;2.60;;;;;;;;;;5097028;22;20056;-68
2022/04/07 11:27:35;;;;;;;16.30;3.40;;;10.30;99.90;;;;;;5111457;28;20043;-69
2022/04/07 11:30:05;;;;;;;;;;;10.10;99.90;;;;;;5117233;28;20437;-69
2022/04/07 11:32:36;;;;;;;13.75;2.58;;;;;;;;;;5086917;28;20364;-68
2022/04/07 11:35:12;;;;;;;11.23;2.42;;;;;;;;;;5096048;28;20044;-68
2022/04/07 11:37:39;;;;;;;7.78;1.65;;;;;;;;;;5085421;28;20070;-68
2022/04/07 11:40:06;;;;;;;12.65;3.17;;;;;;;;;;5095814;28;20432;-70
2022/04/07 11:48:17;;;;;;;12.70;1.98;;;;;;;;;;5055778;28;20067;-70
2022/04/07 11:50:43;;;;;;;10.25;1.58;;;;;;;;;;5075427;28;20049;-69
2022/04/07 11:53:10;;;;;;;16.13;1.90;;;;;;;;;;5075496;28;20040;-69
2022/04/07 11:55:36;;;;;;;12.80;2.03;;;;;;;;;;5090240;28;20052;-70
2022/04/07 11:58:02;;;;;;;13.15;2.30;;;;;;;;;;5041019;28;20060;-70
2022/04/07 12:00:29;;;;;;;12.65;2.15;;;;;;;;;;5057486;28;20060;-69
2022/04/07 12:03:02;;;;;;;9.02;1.60;;;;;;;;;;5044157;28;20605;-70
2022/04/07 12:05:30;;;;;;;12.35;1.65;;;;;;;;;;5065385;28;20105;-69
2022/04/07 12:07:56;;;;;;;26.38;3.22;;;;;;;;;;5056838;28;20131;-70
2022/04/07 12:10:23;;;;;;;10.27;2.10;;;;;;;;;;5075218;28;20045;-69
2022/04/07 12:12:49;;;;;;;12.40;1.73;;;;;;;;;;5040987;28;20041;-70
2022/04/07 12:15:18;;;;;;;9.15;1.73;;;;;;;;;;5053626;28;20611;-69
2022/04/07 12:18:00;;;;;;;8.98;1.70;;;;;;;;;;5054036;28;20590;-69
2022/04/07 12:20:26;;;;;;;8.73;1.85;;;;;;;;;;5074823;28;20515;-69
2022/04/07 12:23:08;;;;;;;9.77;2.42;;;;;;;;;;5074867;28;20091;-69
2022/04/07 12:25:35;;;;;;;12.88;3.53;;;;;;;;;;5057293;28;20052;-69
2022/04/07 12:28:11;;;;;;;8.68;2.80;;;;;;;;;;5040379;28;20541;-69
2022/04/07 12:30:51;;;;;;;10.82;2.05;;;;;;;;;;5056294;28;20060;-69
2022/04/07 12:33:45;;;;;;;13.13;1.40;;;10.50;99.90;;;;;;5053378;28;20589;-70
2022/04/07 12:36:12;;;;;;;7.43;1.33;;;;;;;;;;5056566;28;20111;-68
2022/04/07 12:38:38;;;;;;;5.78;1.38;;;;;;;;;;5069715;28;20039;-68
2022/04/07 12:41:09;;;;;;;9.18;1.27;;;;;;;;;;5037291;28;20063;-69
2022/04/07 12:43:52;;;;;;;7.25;1.05;;;;;;;;;;5036646;28;20047;-69
2022/04/07 12:46:19;;;;;;;6.80;1.67;;;;;;;;;;5054482;28;20060;-70
2022/04/07 12:49:04;;;;;;;9.15;2.33;;;;;;;;;;5068621;28;20052;-68
2022/04/07 12:51:31;;;;;;;9.80;2.80;;;;;;;;;;5074417;28;20447;-68
2022/04/07 12:54:17;;;;;;;7.28;2.08;;;;;;;;;;5039288;28;20114;-70
2022/04/07 12:56:44;;;;;;;8.35;2.10;;;;;;;;;;5055564;28;20067;-71
2022/04/07 12:59:11;;;;;;;6.72;1.90;;;;;;;;;;5038907;28;20036;-71
2022/04/07 13:01:38;;;;;;;10.25;1.88;;;;;;;;;;5071755;28;20044;-68
2022/04/07 13:04:07;;;;;;;6.15;1.17;;;;;;;;;;5055752;28;20086;-70
2022/04/07 13:06:34;;;;;;;9.10;1.60;;;;;;;;;;5037485;28;20053;-70
2022/04/07 13:09:00;;;;;;;8.65;2.20;;;;;;;;;;5071884;28;20109;-68
2022/04/07 13:11:33;;;;;;;12.45;1.50;;;;;;;;;;5055655;28;20445;-69
2022/04/07 13:14:00;;;;;;;12.07;1.88;;;;;;;;;;5050173;28;20425;-69
2022/04/07 13:16:26;;;;;;;7.78;1.63;;;;;;;;;;5047847;28;20040;-69
2022/04/07 13:18:52;;;;;;;8.43;2.30;;;;;;;;;;5055464;28;20041;-69
2022/04/07 13:21:18;;;;;;;9.20;1.38;;;;;;;;;;5067818;28;20040;-70
2022/04/07 13:23:44;;;;;;;8.20;1.50;;;;;;;;;;5068728;28;20049;-70
2022/04/07 13:26:10;;;;;;;7.45;1.17;;;;;;;;;;5054430;28;20072;-69
2022/04/07 13:28:36;;;;;;;5.07;1.20;;;;;;;;;;5047236;28;20121;-69
2022/04/07 13:31:03;;;;;;;7.13;1.20;;;;;;;;;;5067218;28;20097;-69
2022/04/07 13:33:29;;;;;;;4.57;0.70;;;;;;;;;;5045768;28;20049;-69
2022/04/07 13:35:56;;;;;;;3.47;0.95;;;;;;;;;;5042579;28;20051;-70
2022/04/07 13:38:22;;;;;;;8.48;1.63;;;;;;;;;;5037325;28;20059;-69
2022/04/07 13:40:49;;;;;;;5.75;1.30;;;;;;;;;;5068758;28;20396;-70
2022/04/07 13:43:16;;;;;;;8.95;2.05;;;;;;;;;;5044589;28;20071;-70
2022/04/07 13:45:46;;;;;;;10.70;2.97;;;;;;;;;;5072874;28;20481;-69
2022/04/07 13:48:12;;;;;;;12.32;2.92;;;;;;;;;;5064970;28;20049;-69
2022/04/07 13:50:39;;;;;;;8.00;2.47;;;;;;;;;;5038619;28;20099;-69
2022/04/07 13:53:05;;;;;;;7.70;2.15;;;;;;;;;;5067789;28;20044;-69
2022/04/07 13:55:32;;;;;;;7.75;2.38;;;;;;;;;;5064925;28;20098;-69
2022/04/07 13:57:58;;;;;;;19.27;2.65;;;;;;;;;;5044982;28;20049;-69
2022/04/07 14:00:25;;;;;;;9.43;2.25;;;;;;;;;;5039725;28;20040;-70
2022/04/07 14:02:51;;;;;;;7.75;1.90;;;;;;;;;;5037727;28;20048;-70
2022/04/07 14:05:17;;;;;;;8.80;1.67;;;;;;;;;;5054827;28;20078;-70
2022/04/07 14:07:43;;;;;;;9.15;1.70;;;;;;;;;;5066734;28;20076;-70
2022/04/07 14:10:14;;;;;;;8.23;1.88;;;;;;;;;;5054524;28;20056;-70
2022/04/07 14:12:40;;;;;;;9.45;2.15;;;;;;;;;;5052475;28;20052;-71
2022/04/07 14:15:07;;;;;;;8.45;1.67;;;;;;;;;;5081158;28;20751;-70
2022/04/07 14:17:33;;;;;;;8.38;2.45;;;;;;;;;;5052989;28;20453;-71
2022/04/07 14:19:59;;;;;;;9.05;1.83;;;;;;;;;;5052849;28;20036;-72
2022/04/07 14:22:25;;;;;;;7.05;1.92;;;;;;;;;;5072157;28;20037;-71
2022/04/07 14:24:51;;;;;;;11.25;2.08;;;;;;;;;;5033273;28;20048;-70
2022/04/07 14:27:18;;;;;;;10.80;2.08;;;;;;;;;;5069660;28;20059;-72
2022/04/07 14:29:44;;;;;;;8.98;1.75;;;;;;;;;;5049612;28;20036;-72
2022/04/07 14:32:10;;;;;;;3.42;0.65;;;;;;;;;;5070156;28;20048;-73
2022/04/07 14:34:36;;;;;;;1.65;1.05;;;;;;;;;;5047452;28;20059;-73
2022/04/07 14:37:02;;;;;;;3.13;0.50;;;;;;;;;;5067484;28;20048;-73
2022/04/07 14:39:28;;;;;;;4.28;1.27;;;;;;;;;;5053501;28;20117;-72
2022/04/07 14:41:54;;;;;;;4.07;2.17;;;;;;;;;;5065483;28;20076;-72
2022/04/07 14:44:20;;;;;;;3.67;1.30;;;;;;;;;;5066519;28;20123;-71
2022/04/07 14:46:46;;;;;;;5.28;1.50;;;;;;;;;;5052847;28;20132;-70
2022/04/07 14:49:14;;;;;;;7.85;2.42;;;;;;;;;;5052041;28;20052;-70